Pride Of Kent — MQCJ2 — position and weather

sailwx.info

Track history (hours):
 
Tides and Currents Weather Stations Pressure Air Temp Water Temp Dewpoint Dewpoint Depression Visibility Wind Speed Wind Dir Waves Ship Positions

Pride Of Kent

Operator: P & O Ferries

Last reported at 2016-Feb-07 12:33 UTC. Time now 2016-Feb-07 13:02 UTC.
Position N 50°58' E 001°51'.

Length 180 m; draft 6 m.

Type: Passenger vessel. MMSI: 232009000.

Date/timePositionNaut miles runAvg speedWind from/ knotsBaromVisibWave heightAir tempDewpointWater temp
2016-Feb-07 12:33N 50°58' E 001°51'1515.4
2016-Feb-07 11:33N 51°04' E 001°28'6 6.0
2016-Feb-07 10:33N 51°07' E 001°20'1212.2
2016-Feb-07 09:33N 51°02' E 001°37'10 9.5
2016-Feb-07 08:33N 50°58' E 001°51'6 6.0
2016-Feb-07 07:33N 50°58' E 001°41'1614.7
2016-Feb-07 06:26N 51°07' E 001°20'0 0.0
2016-Feb-07 05:33N 51°07' E 001°20'1010.4
2016-Feb-07 04:33N 51°02' E 001°34'1111.4
2016-Feb-07 03:33N 50°58' E 001°51'6 5.6
2016-Feb-07 02:33N 50°58' E 001°42'1715.9
2016-Feb-07 01:31N 51°07' E 001°20'3 3.5
2016-Feb-07 00:34N 51°06' E 001°25'1716.7
2016-Feb-06 23:34N 50°58' E 001°48'2 1.7
2016-Feb-06 22:33N 50°58' E 001°51'1414.4
2016-Feb-06 21:33N 51°01' E 001°29'8 6.3
2016-Feb-06 20:17N 51°07' E 001°20'912.7
2016-Feb-06 19:34N 51°04' E 001°34'1212.5
2016-Feb-06 18:33N 50°58' E 001°51'4 4.4
2016-Feb-06 17:33N 50°58' E 001°44'1615.6
2016-Feb-06 16:34N 51°06' E 001°23'2 2.2
2016-Feb-06 15:33N 51°07' E 001°20'1111.2
2016-Feb-06 14:34N 51°04' E 001°37'1110.6
2016-Feb-06 13:33N 50°58' E 001°51'7 7.3
2016-Feb-06 12:33N 50°59' E 001°39'1514.9
2016-Feb-06 11:33N 51°07' E 001°20'0 0.1
2016-Feb-06 10:33N 51°07' E 001°20'1414.5
2016-Feb-06 09:34N 51°01' E 001°40'7 7.1
2016-Feb-06 08:33N 50°58' E 001°51'7 6.9
2016-Feb-06 07:33N 50°59' E 001°40'1514.1
2016-Feb-06 06:29N 51°07' E 001°20'0 0.0
2016-Feb-06 05:31N 51°07' E 001°20'1010.1
2016-Feb-06 04:34N 51°05' E 001°35'1212.2
2016-Feb-06 03:33N 50°58' E 001°51'0 0.0
2016-Feb-06 02:33N 50°58' E 001°51'1515.5
2016-Feb-06 01:34N 51°05' E 001°29'6 4.6
2016-Feb-06 00:14N 51°07' E 001°20'710.5
2016-Feb-05 23:34N 51°05' E 001°30'1512.7
2016-Feb-05 22:25N 50°58' E 001°51'2 2.1
2016-Feb-05 21:33N 50°58' E 001°48'1918.5
2016-Feb-05 20:33N 51°07' E 001°22'1 1.3
2016-Feb-05 19:31N 51°07' E 001°20'1617.0
2016-Feb-05 18:33N 50°59' E 001°42'5 5.5
2016-Feb-05 17:33N 50°58' E 001°51'1111.2
2016-Feb-05 16:34N 50°59' E 001°33'1210.3
2016-Feb-05 15:25N 51°07' E 001°20'6 7.1
2016-Feb-05 14:33N 51°06' E 001°30'1615.6
2016-Feb-05 13:33N 50°58' E 001°51'2 2.4
2016-Feb-05 12:33N 50°58' E 001°47'1817.8
2016-Feb-05 11:33N 51°07' E 001°22'2 1.5
2016-Feb-05 10:32N 51°07' E 001°20'1413.9
2016-Feb-05 09:34N 51°01' E 001°39'8 8.0
2016-Feb-05 08:33N 50°58' E 001°51'7 7.0
2016-Feb-05 07:33N 50°58' E 001°40'15 7.5
2016-Feb-05 05:34N 51°07' E 001°21'1616.0
2016-Feb-05 04:33N 50°59' E 001°43'5 5.4
2016-Feb-05 03:33N 50°58' E 001°51'1010.3
2016-Feb-05 02:33N 51°01' E 001°35'1211.5
2016-Feb-05 01:33N 51°07' E 001°20'5 5.3
2016-Feb-05 00:34N 51°06' E 001°28'1616.4
2016-Feb-04 23:34N 50°58' E 001°51'0 0.0
2016-Feb-04 22:34N 50°58' E 001°51'1616.4
2016-Feb-04 21:34N 51°05' E 001°27'5 4.6
2016-Feb-04 20:26N 51°07' E 001°20'1214.2
2016-Feb-04 19:33N 51°04' E 001°39'9 9.3
2016-Feb-04 18:33N 50°58' E 001°51'2 1.9
2016-Feb-04 17:33N 50°58' E 001°48'1817.7
2016-Feb-04 16:33N 51°06' E 001°23'2 2.2
2016-Feb-04 15:33N 51°07' E 001°20'1211.7
2016-Feb-04 14:33N 51°02' E 001°36'10 9.9
2016-Feb-04 13:33N 50°58' E 001°51'7 7.5
2016-Feb-04 12:33N 50°59' E 001°39'13 6.4
2016-Feb-04 10:34N 51°07' E 001°24'1313.0
2016-Feb-04 09:33N 51°00' E 001°41'6 6.4
2016-Feb-04 08:33N 50°58' E 001°51'8 8.5
2016-Feb-04 07:34N 50°59' E 001°38'14 5.8
2016-Feb-04 05:13N 51°07' E 001°20'711.5
2016-Feb-04 04:33N 51°05' E 001°31'1414.1
2016-Feb-04 03:33N 50°58' E 001°51'0 0.0
2016-Feb-04 02:33N 50°58' E 001°51'0 0.0
2016-Feb-04 01:33N 50°58' E 001°51'1 1.3
2016-Feb-04 00:33N 50°58' E 001°49'1413.5
2016-Feb-03 23:33N 51°03' E 001°29'7 7.0
2016-Feb-03 22:33N 51°07' E 001°20'7 6.8
2016-Feb-03 21:33N 51°07' E 001°31'1515.2
2016-Feb-03 20:33N 50°58' E 001°51'1 1.0
2016-Feb-03 19:33N 50°58' E 001°49'1817.7
2016-Feb-03 18:33N 51°04' E 001°23'3 3.0
2016-Feb-03 17:24N 51°07' E 001°20'1214.0
2016-Feb-03 16:34N 51°02' E 001°36'10 9.8
2016-Feb-03 15:33N 50°58' E 001°51'6 6.4
2016-Feb-03 14:33N 50°58' E 001°41'1615.3
2016-Feb-03 13:30N 51°07' E 001°20'0 0.0
2016-Feb-03 12:33N 51°07' E 001°20'0 0.0
2016-Feb-03 11:30N 51°07' E 001°20'0 0.1
2016-Feb-03 10:33N 51°07' E 001°20'1515.4
2016-Feb-03 09:33N 51°00' E 001°42'6 6.2
2016-Feb-03 08:33N 50°58' E 001°51'9 8.9
2016-Feb-03 07:33N 50°58' E 001°37'14 6.5
2016-Feb-03 05:21N 51°07' E 001°20'1113.4
2016-Feb-03 04:33N 51°02' E 001°35'1111.0
2016-Feb-03 03:33N 50°58' E 001°51'4 4.1
2016-Feb-03 02:34N 50°58' E 001°45'1817.6
2016-Feb-03 01:33N 51°07' E 001°21'0 0.3
2016-Feb-03 00:33N 51°07' E 001°20'1616.4
2016-Feb-02 23:34N 50°59' E 001°43'5 5.2
2016-Feb-02 22:33N 50°58' E 001°51'1111.0
2016-Feb-02 21:34N 51°00' E 001°34'1110.9
2016-Feb-02 20:31N 51°07' E 001°20'7 6.9
2016-Feb-02 19:33N 51°05' E 001°30'1514.9
2016-Feb-02 18:34N 50°58' E 001°51'1 0.9
2016-Feb-02 17:33N 50°58' E 001°50'1616.4
2016-Feb-02 16:33N 51°05' E 001°26'4 4.2
2016-Feb-02 15:30N 51°07' E 001°20'1011.1
2016-Feb-02 14:33N 51°02' E 001°35'1111.1
2016-Feb-02 13:33N 50°58' E 001°51'5 4.5
2016-Feb-02 12:34N 50°58' E 001°44'1817.5
2016-Feb-02 11:33N 51°07' E 001°20'0 0.1
2016-Feb-02 10:11N 51°07' E 001°20'813.0
2016-Feb-02 09:34N 51°03' E 001°31'1313.3
2016-Feb-02 08:33N 50°58' E 001°51'3 3.3
2016-Feb-02 07:33N 50°58' E 001°46'1818.0
2016-Feb-02 06:33N 51°07' E 001°21'1 0.6
2016-Feb-02 05:24N 51°07' E 001°20'1112.4
2016-Feb-02 04:34N 51°03' E 001°35'1111.0
2016-Feb-02 03:33N 50°58' E 001°51'5 5.4
2016-Feb-02 02:34N 50°58' E 001°42'1716.5
2016-Feb-02 01:32N 51°07' E 001°20'3 3.4
2016-Feb-02 00:33N 51°06' E 001°25'1717.5
2016-Feb-01 23:33N 50°58' E 001°50'1 0.8
2016-Feb-01 22:33N 50°58' E 001°51'1414.5
2016-Feb-01 21:34N 51°02' E 001°29'8 6.4
2016-Feb-01 20:22N 51°07' E 001°20'1013.0
2016-Feb-01 19:33N 51°03' E 001°35'1111.1
2016-Feb-01 18:33N 50°58' E 001°51'6 5.9
2016-Feb-01 17:33N 50°59' E 001°42'1615.9
2016-Feb-01 16:32N 51°07' E 001°20'0 0.1
2016-Feb-01 15:32N 51°07' E 001°20'1313.7
2016-Feb-01 14:34N 51°01' E 001°39'8 8.1
2016-Feb-01 13:33N 50°58' E 001°51'3 3.1
2016-Feb-01 12:33N 50°58' E 001°46'1818.0
2016-Feb-01 11:33N 51°07' E 001°21'1 0.8
2016-Feb-01 10:26N 51°07' E 001°20'1314.6
2016-Feb-01 09:33N 51°01' E 001°38'9 8.9
2016-Feb-01 08:33N 50°58' E 001°51'6 5.6
2016-Feb-01 07:33N 50°58' E 001°42'1716.1
2016-Feb-01 06:31N 51°07' E 001°20'0 0.0
2016-Feb-01 05:21N 51°07' E 001°20'810.4
2016-Feb-01 04:33N 51°06' E 001°33'1313.2
2016-Feb-01 03:33N 50°58' E 001°50'0 0.4
2016-Feb-01 02:32N 50°58' E 001°51'1111.3
2016-Feb-01 01:33N 50°59' E 001°34'1211.7
2016-Feb-01 00:33N 51°07' E 001°20'5 4.7
2016-Jan-31 23:34N 51°07' E 001°27'1615.9
2016-Jan-31 22:34N 50°58' E 001°49'1 1.2
2016-Jan-31 21:33N 50°58' E 001°51'1717.1
2016-Jan-31 20:34N 51°04' E 001°26'5 4.6
2016-Jan-31 19:32N 51°07' E 001°20'1313.0
2016-Jan-31 18:34N 51°02' E 001°38'9 8.8
2016-Jan-31 17:33N 50°58' E 001°51'1010.3
2016-Jan-31 16:34N 51°00' E 001°35'9 4.3
2016-Jan-31 14:34N 51°07' E 001°27'1616.4
2016-Jan-31 13:33N 50°58' E 001°49'1 1.3
2016-Jan-31 12:33N 50°58' E 001°51'1616.1
2016-Jan-31 11:34N 51°04' E 001°27'6 5.5
2016-Jan-31 10:30N 51°07' E 001°20'1213.1
2016-Jan-31 09:33N 51°01' E 001°37'9 9.1
2016-Jan-31 08:33N 50°58' E 001°51'1010.1
2016-Jan-31 07:34N 51°00' E 001°36'9 3.0
2016-Jan-31 04:34N 51°06' E 001°25'1716.9
2016-Jan-31 03:33N 50°58' E 001°49'1 1.3
2016-Jan-31 02:33N 50°58' E 001°51'6 6.0
2016-Jan-31 01:33N 50°58' E 001°42'16 5.3
2016-Jan-30 22:33N 51°07' E 001°21'1615.8
2016-Jan-30 21:33N 50°60' E 001°42'6 5.9
2016-Jan-30 20:33N 50°58' E 001°51'3 3.0
2016-Jan-30 19:34N 50°58' E 001°47'1818.3
2016-Jan-30 18:33N 51°07' E 001°21'1 0.7
2016-Jan-30 17:33N 51°07' E 001°20'1414.5
2016-Jan-30 16:34N 51°01' E 001°41'7 7.1
2016-Jan-30 15:33N 50°58' E 001°51'1110.7
2016-Jan-30 14:33N 51°02' E 001°35'7 3.3
2016-Jan-30 12:34N 51°06' E 001°27'1717.0
2016-Jan-30 11:34N 50°58' E 001°51'1 0.9
2016-Jan-30 10:34N 50°58' E 001°50'1616.5
2016-Jan-30 09:33N 51°05' E 001°25'4 4.2
2016-Jan-30 08:33N 51°07' E 001°20'9 9.3
2016-Jan-30 07:33N 51°04' E 001°34'1212.4
2016-Jan-30 06:33N 50°58' E 001°51'2 1.6
2016-Jan-30 05:33N 50°58' E 001°49'1817.6
2016-Jan-30 04:33N 51°06' E 001°23'2 2.2
2016-Jan-30 03:27N 51°07' E 001°20'910.1
2016-Jan-30 02:33N 51°04' E 001°33'1312.5
2016-Jan-30 01:33N 50°58' E 001°51'6 6.2
2016-Jan-30 00:33N 50°58' E 001°41'9 8.7
2016-Jan-29 23:33N 51°03' E 001°30'8 7.7
2016-Jan-29 22:33N 51°07' E 001°20'8 8.4
2016-Jan-29 21:34N 51°03' E 001°32'1313.1
2016-Jan-29 20:33N 50°58' E 001°51'5 5.5
2016-Jan-29 19:33N 50°58' E 001°42'1716.7
2016-Jan-29 18:33N 51°07' E 001°20'0 0.0
2016-Jan-29 17:33N 51°07' E 001°20'5 5.3
2016-Jan-29 16:33N 51°07' E 001°29'1515.1
2016-Jan-29 15:33N 50°58' E 001°48'2 1.8
2016-Jan-29 14:34N 50°58' E 001°51'1817.9
2016-Jan-29 13:34N 51°06' E 001°25'3 3.3
2016-Jan-29 12:33N 51°07' E 001°20'4 4.1
2016-Jan-29 11:33N 51°08' E 001°27'1616.4
2016-Jan-29 10:34N 50°58' E 001°47'3 2.6
2016-Jan-29 09:33N 50°58' E 001°51'1414.5
2016-Jan-29 08:34N 51°03' E 001°29'7 7.2
2016-Jan-29 07:33N 51°07' E 001°20'0 0.0
2016-Jan-29 06:33N 51°07' E 001°20'3 2.7
2016-Jan-29 05:33N 51°07' E 001°24'1312.8
2016-Jan-29 04:34N 50°60' E 001°41'7 6.7
2016-Jan-29 03:33N 50°58' E 001°51'9 9.2
2016-Jan-29 02:33N 51°00' E 001°37'1312.6
2016-Jan-29 01:33N 51°07' E 001°20'1 1.2
2016-Jan-29 00:33N 51°07' E 001°22'10 9.6
2016-Jan-28 23:34N 51°03' E 001°35'1110.8
2016-Jan-28 22:33N 50°58' E 001°51'3 3.2
2016-Jan-28 21:33N 50°58' E 001°46'1616.2
2016-Jan-28 20:33N 51°06' E 001°23'3 2.4
2016-Jan-28 19:28N 51°07' E 001°20'1314.6
2016-Jan-28 18:34N 51°01' E 001°39'8 8.2
2016-Jan-28 17:33N 50°58' E 001°51'9 9.5
2016-Jan-28 16:33N 50°59' E 001°36'10 5.2
2016-Jan-28 14:33N 51°08' E 001°27'1616.0
2016-Jan-28 13:33N 50°58' E 001°48'  
Track history (hours):
 
Tides and Currents Weather Stations Pressure Air Temp Water Temp Dewpoint Dewpoint Depression Visibility Wind Speed Wind Dir Waves Ship Positions

Pride Of Kent

Operator: P & O Ferries

Last reported at 2016-Feb-07 12:33 UTC. Time now 2016-Feb-07 13:02 UTC.
Position N 50°58' E 001°51'.

Length 180 m; draft 6 m.

Type: Passenger vessel. MMSI: 232009000.

Date/timePositionNaut miles runAvg speedWind from/ knotsBaromVisibWave heightAir tempDewpointWater temp
2016-Feb-07 12:33N 50°58' E 001°51'1515.4
2016-Feb-07 11:33N 51°04' E 001°28'6 6.0
2016-Feb-07 10:33N 51°07' E 001°20'1212.2
2016-Feb-07 09:33N 51°02' E 001°37'10 9.5
2016-Feb-07 08:33N 50°58' E 001°51'6 6.0
2016-Feb-07 07:33N 50°58' E 001°41'1614.7
2016-Feb-07 06:26N 51°07' E 001°20'0 0.0
2016-Feb-07 05:33N 51°07' E 001°20'1010.4
2016-Feb-07 04:33N 51°02' E 001°34'1111.4
2016-Feb-07 03:33N 50°58' E 001°51'6 5.6
2016-Feb-07 02:33N 50°58' E 001°42'1715.9
2016-Feb-07 01:31N 51°07' E 001°20'3 3.5
2016-Feb-07 00:34N 51°06' E 001°25'1716.7
2016-Feb-06 23:34N 50°58' E 001°48'2 1.7
2016-Feb-06 22:33N 50°58' E 001°51'1414.4
2016-Feb-06 21:33N 51°01' E 001°29'8 6.3
2016-Feb-06 20:17N 51°07' E 001°20'912.7
2016-Feb-06 19:34N 51°04' E 001°34'1212.5
2016-Feb-06 18:33N 50°58' E 001°51'4 4.4
2016-Feb-06 17:33N 50°58' E 001°44'1615.6
2016-Feb-06 16:34N 51°06' E 001°23'2 2.2
2016-Feb-06 15:33N 51°07' E 001°20'1111.2
2016-Feb-06 14:34N 51°04' E 001°37'1110.6
2016-Feb-06 13:33N 50°58' E 001°51'7 7.3
2016-Feb-06 12:33N 50°59' E 001°39'1514.9
2016-Feb-06 11:33N 51°07' E 001°20'0 0.1
2016-Feb-06 10:33N 51°07' E 001°20'1414.5
2016-Feb-06 09:34N 51°01' E 001°40'7 7.1
2016-Feb-06 08:33N 50°58' E 001°51'7 6.9
2016-Feb-06 07:33N 50°59' E 001°40'1514.1
2016-Feb-06 06:29N 51°07' E 001°20'0 0.0
2016-Feb-06 05:31N 51°07' E 001°20'1010.1
2016-Feb-06 04:34N 51°05' E 001°35'1212.2
2016-Feb-06 03:33N 50°58' E 001°51'0 0.0
2016-Feb-06 02:33N 50°58' E 001°51'1515.5
2016-Feb-06 01:34N 51°05' E 001°29'6 4.6
2016-Feb-06 00:14N 51°07' E 001°20'710.5
2016-Feb-05 23:34N 51°05' E 001°30'1512.7
2016-Feb-05 22:25N 50°58' E 001°51'2 2.1
2016-Feb-05 21:33N 50°58' E 001°48'1918.5
2016-Feb-05 20:33N 51°07' E 001°22'1 1.3
2016-Feb-05 19:31N 51°07' E 001°20'1617.0
2016-Feb-05 18:33N 50°59' E 001°42'5 5.5
2016-Feb-05 17:33N 50°58' E 001°51'1111.2
2016-Feb-05 16:34N 50°59' E 001°33'1210.3
2016-Feb-05 15:25N 51°07' E 001°20'6 7.1
2016-Feb-05 14:33N 51°06' E 001°30'1615.6
2016-Feb-05 13:33N 50°58' E 001°51'2 2.4
2016-Feb-05 12:33N 50°58' E 001°47'1817.8
2016-Feb-05 11:33N 51°07' E 001°22'2 1.5
2016-Feb-05 10:32N 51°07' E 001°20'1413.9
2016-Feb-05 09:34N 51°01' E 001°39'8 8.0
2016-Feb-05 08:33N 50°58' E 001°51'7 7.0
2016-Feb-05 07:33N 50°58' E 001°40'15 7.5
2016-Feb-05 05:34N 51°07' E 001°21'1616.0
2016-Feb-05 04:33N 50°59' E 001°43'5 5.4
2016-Feb-05 03:33N 50°58' E 001°51'1010.3
2016-Feb-05 02:33N 51°01' E 001°35'1211.5
2016-Feb-05 01:33N 51°07' E 001°20'5 5.3
2016-Feb-05 00:34N 51°06' E 001°28'1616.4
2016-Feb-04 23:34N 50°58' E 001°51'0 0.0
2016-Feb-04 22:34N 50°58' E 001°51'1616.4
2016-Feb-04 21:34N 51°05' E 001°27'5 4.6
2016-Feb-04 20:26N 51°07' E 001°20'1214.2
2016-Feb-04 19:33N 51°04' E 001°39'9 9.3
2016-Feb-04 18:33N 50°58' E 001°51'2 1.9
2016-Feb-04 17:33N 50°58' E 001°48'1817.7
2016-Feb-04 16:33N 51°06' E 001°23'2 2.2
2016-Feb-04 15:33N 51°07' E 001°20'1211.7
2016-Feb-04 14:33N 51°02' E 001°36'10 9.9
2016-Feb-04 13:33N 50°58' E 001°51'7 7.5
2016-Feb-04 12:33N 50°59' E 001°39'13 6.4
2016-Feb-04 10:34N 51°07' E 001°24'1313.0
2016-Feb-04 09:33N 51°00' E 001°41'6 6.4
2016-Feb-04 08:33N 50°58' E 001°51'8 8.5
2016-Feb-04 07:34N 50°59' E 001°38'14 5.8
2016-Feb-04 05:13N 51°07' E 001°20'711.5
2016-Feb-04 04:33N 51°05' E 001°31'1414.1
2016-Feb-04 03:33N 50°58' E 001°51'0 0.0
2016-Feb-04 02:33N 50°58' E 001°51'0 0.0
2016-Feb-04 01:33N 50°58' E 001°51'1 1.3
2016-Feb-04 00:33N 50°58' E 001°49'1413.5
2016-Feb-03 23:33N 51°03' E 001°29'7 7.0
2016-Feb-03 22:33N 51°07' E 001°20'7 6.8
2016-Feb-03 21:33N 51°07' E 001°31'1515.2
2016-Feb-03 20:33N 50°58' E 001°51'1 1.0
2016-Feb-03 19:33N 50°58' E 001°49'1817.7
2016-Feb-03 18:33N 51°04' E 001°23'3 3.0
2016-Feb-03 17:24N 51°07' E 001°20'1214.0
2016-Feb-03 16:34N 51°02' E 001°36'10 9.8
2016-Feb-03 15:33N 50°58' E 001°51'6 6.4
2016-Feb-03 14:33N 50°58' E 001°41'1615.3
2016-Feb-03 13:30N 51°07' E 001°20'0 0.0
2016-Feb-03 12:33N 51°07' E 001°20'0 0.0
2016-Feb-03 11:30N 51°07' E 001°20'0 0.1
2016-Feb-03 10:33N 51°07' E 001°20'1515.4
2016-Feb-03 09:33N 51°00' E 001°42'6 6.2
2016-Feb-03 08:33N 50°58' E 001°51'9 8.9
2016-Feb-03 07:33N 50°58' E 001°37'14 6.5
2016-Feb-03 05:21N 51°07' E 001°20'1113.4
2016-Feb-03 04:33N 51°02' E 001°35'1111.0
2016-Feb-03 03:33N 50°58' E 001°51'4 4.1
2016-Feb-03 02:34N 50°58' E 001°45'1817.6
2016-Feb-03 01:33N 51°07' E 001°21'0 0.3
2016-Feb-03 00:33N 51°07' E 001°20'1616.4
2016-Feb-02 23:34N 50°59' E 001°43'5 5.2
2016-Feb-02 22:33N 50°58' E 001°51'1111.0
2016-Feb-02 21:34N 51°00' E 001°34'1110.9
2016-Feb-02 20:31N 51°07' E 001°20'7 6.9
2016-Feb-02 19:33N 51°05' E 001°30'1514.9
2016-Feb-02 18:34N 50°58' E 001°51'1 0.9
2016-Feb-02 17:33N 50°58' E 001°50'1616.4
2016-Feb-02 16:33N 51°05' E 001°26'4 4.2
2016-Feb-02 15:30N 51°07' E 001°20'1011.1
2016-Feb-02 14:33N 51°02' E 001°35'1111.1
2016-Feb-02 13:33N 50°58' E 001°51'5 4.5
2016-Feb-02 12:34N 50°58' E 001°44'1817.5
2016-Feb-02 11:33N 51°07' E 001°20'0 0.1
2016-Feb-02 10:11N 51°07' E 001°20'813.0
2016-Feb-02 09:34N 51°03' E 001°31'1313.3
2016-Feb-02 08:33N 50°58' E 001°51'3 3.3
2016-Feb-02 07:33N 50°58' E 001°46'1818.0
2016-Feb-02 06:33N 51°07' E 001°21'1 0.6
2016-Feb-02 05:24N 51°07' E 001°20'1112.4
2016-Feb-02 04:34N 51°03' E 001°35'1111.0
2016-Feb-02 03:33N 50°58' E 001°51'5 5.4
2016-Feb-02 02:34N 50°58' E 001°42'1716.5
2016-Feb-02 01:32N 51°07' E 001°20'3 3.4
2016-Feb-02 00:33N 51°06' E 001°25'1717.5
2016-Feb-01 23:33N 50°58' E 001°50'1 0.8
2016-Feb-01 22:33N 50°58' E 001°51'1414.5
2016-Feb-01 21:34N 51°02' E 001°29'8 6.4
2016-Feb-01 20:22N 51°07' E 001°20'1013.0
2016-Feb-01 19:33N 51°03' E 001°35'1111.1
2016-Feb-01 18:33N 50°58' E 001°51'6 5.9
2016-Feb-01 17:33N 50°59' E 001°42'1615.9
2016-Feb-01 16:32N 51°07' E 001°20'0 0.1
2016-Feb-01 15:32N 51°07' E 001°20'1313.7
2016-Feb-01 14:34N 51°01' E 001°39'8 8.1
2016-Feb-01 13:33N 50°58' E 001°51'3 3.1
2016-Feb-01 12:33N 50°58' E 001°46'1818.0
2016-Feb-01 11:33N 51°07' E 001°21'1 0.8
2016-Feb-01 10:26N 51°07' E 001°20'1314.6
2016-Feb-01 09:33N 51°01' E 001°38'9 8.9
2016-Feb-01 08:33N 50°58' E 001°51'6 5.6
2016-Feb-01 07:33N 50°58' E 001°42'1716.1
2016-Feb-01 06:31N 51°07' E 001°20'0 0.0
2016-Feb-01 05:21N 51°07' E 001°20'810.4
2016-Feb-01 04:33N 51°06' E 001°33'1313.2
2016-Feb-01 03:33N 50°58' E 001°50'0 0.4
2016-Feb-01 02:32N 50°58' E 001°51'1111.3
2016-Feb-01 01:33N 50°59' E 001°34'1211.7
2016-Feb-01 00:33N 51°07' E 001°20'5 4.7
2016-Jan-31 23:34N 51°07' E 001°27'1615.9
2016-Jan-31 22:34N 50°58' E 001°49'1 1.2
2016-Jan-31 21:33N 50°58' E 001°51'1717.1
2016-Jan-31 20:34N 51°04' E 001°26'5 4.6
2016-Jan-31 19:32N 51°07' E 001°20'1313.0
2016-Jan-31 18:34N 51°02' E 001°38'9 8.8
2016-Jan-31 17:33N 50°58' E 001°51'1010.3
2016-Jan-31 16:34N 51°00' E 001°35'9 4.3
2016-Jan-31 14:34N 51°07' E 001°27'1616.4
2016-Jan-31 13:33N 50°58' E 001°49'1 1.3
2016-Jan-31 12:33N 50°58' E 001°51'1616.1
2016-Jan-31 11:34N 51°04' E 001°27'6 5.5
2016-Jan-31 10:30N 51°07' E 001°20'1213.1
2016-Jan-31 09:33N 51°01' E 001°37'9 9.1
2016-Jan-31 08:33N 50°58' E 001°51'1010.1
2016-Jan-31 07:34N 51°00' E 001°36'9 3.0
2016-Jan-31 04:34N 51°06' E 001°25'1716.9
2016-Jan-31 03:33N 50°58' E 001°49'1 1.3
2016-Jan-31 02:33N 50°58' E 001°51'6 6.0
2016-Jan-31 01:33N 50°58' E 001°42'16 5.3
2016-Jan-30 22:33N 51°07' E 001°21'1615.8
2016-Jan-30 21:33N 50°60' E 001°42'6 5.9
2016-Jan-30 20:33N 50°58' E 001°51'3 3.0
2016-Jan-30 19:34N 50°58' E 001°47'1818.3
2016-Jan-30 18:33N 51°07' E 001°21'1 0.7
2016-Jan-30 17:33N 51°07' E 001°20'1414.5
2016-Jan-30 16:34N 51°01' E 001°41'7 7.1
2016-Jan-30 15:33N 50°58' E 001°51'1110.7
2016-Jan-30 14:33N 51°02' E 001°35'7 3.3
2016-Jan-30 12:34N 51°06' E 001°27'1717.0
2016-Jan-30 11:34N 50°58' E 001°51'1 0.9
2016-Jan-30 10:34N 50°58' E 001°50'1616.5
2016-Jan-30 09:33N 51°05' E 001°25'4 4.2
2016-Jan-30 08:33N 51°07' E 001°20'9 9.3
2016-Jan-30 07:33N 51°04' E 001°34'1212.4
2016-Jan-30 06:33N 50°58' E 001°51'2 1.6
2016-Jan-30 05:33N 50°58' E 001°49'1817.6
2016-Jan-30 04:33N 51°06' E 001°23'2 2.2
2016-Jan-30 03:27N 51°07' E 001°20'910.1
2016-Jan-30 02:33N 51°04' E 001°33'1312.5
2016-Jan-30 01:33N 50°58' E 001°51'6 6.2
2016-Jan-30 00:33N 50°58' E 001°41'9 8.7
2016-Jan-29 23:33N 51°03' E 001°30'8 7.7
2016-Jan-29 22:33N 51°07' E 001°20'8 8.4
2016-Jan-29 21:34N 51°03' E 001°32'1313.1
2016-Jan-29 20:33N 50°58' E 001°51'5 5.5
2016-Jan-29 19:33N 50°58' E 001°42'1716.7
2016-Jan-29 18:33N 51°07' E 001°20'0 0.0
2016-Jan-29 17:33N 51°07' E 001°20'5 5.3
2016-Jan-29 16:33N 51°07' E 001°29'1515.1
2016-Jan-29 15:33N 50°58' E 001°48'2 1.8
2016-Jan-29 14:34N 50°58' E 001°51'1817.9
2016-Jan-29 13:34N 51°06' E 001°25'3 3.3
2016-Jan-29 12:33N 51°07' E 001°20'4 4.1
2016-Jan-29 11:33N 51°08' E 001°27'1616.4
2016-Jan-29 10:34N 50°58' E 001°47'3 2.6
2016-Jan-29 09:33N 50°58' E 001°51'1414.5
2016-Jan-29 08:34N 51°03' E 001°29'7 7.2
2016-Jan-29 07:33N 51°07' E 001°20'0 0.0
2016-Jan-29 06:33N 51°07' E 001°20'3 2.7
2016-Jan-29 05:33N 51°07' E 001°24'1312.8
2016-Jan-29 04:34N 50°60' E 001°41'7 6.7
2016-Jan-29 03:33N 50°58' E 001°51'9 9.2
2016-Jan-29 02:33N 51°00' E 001°37'1312.6
2016-Jan-29 01:33N 51°07' E 001°20'1 1.2
2016-Jan-29 00:33N 51°07' E 001°22'10 9.6
2016-Jan-28 23:34N 51°03' E 001°35'1110.8
2016-Jan-28 22:33N 50°58' E 001°51'3 3.2
2016-Jan-28 21:33N 50°58' E 001°46'1616.2
2016-Jan-28 20:33N 51°06' E 001°23'3 2.4
2016-Jan-28 19:28N 51°07' E 001°20'1314.6
2016-Jan-28 18:34N 51°01' E 001°39'8 8.2
2016-Jan-28 17:33N 50°58' E 001°51'9 9.5
2016-Jan-28 16:33N 50°59' E 001°36'10 5.2
2016-Jan-28 14:33N 51°08' E 001°27'1616.0
2016-Jan-28 13:33N 50°58' E 001°48'  

Dump ship's entire track history